Aeroporto :
LOGIN :

Iscrizione | Disclaimer

   EN    FR    IT 

 










Sommario :    VFR   VFR Marginale   IFR   IFR Intensivo   IFR Molto Intensivo
Visibilità : 
Base nubi : 
>= 8 km
>= 3000ft
5 / 8 km
1000 / 3000 ft
1500m / 5 km
500 / 1000 ft
800 / 1500m
200 / 500 ft
< 800m
< 200 ft
Simboli :   Temporali  Nebbia  Neve Forte  Precipitazioni Forti  Vento > 20 kt
SIGMETs :   Varie  Temporali  Ghiacco  Turbolenza  Onda orograficha  Ceneri Vulcaniche






- Altitudine del aeroporto : 75 ft
- Codice IATA : YEO


EGDY - RNAS Yeovilton

ULTIMO METAR :
  • 022150Z 35002KT 9999 FEW014 BKN100 14/13 Q1013 NOSIG RMK BLU BLU

METARs OBSOLETI :
  • 022120Z 31003KT 9999 FEW014 FEW028TCU SCT100 14/12 Q1014 NOSIG RMK BLU BLU
  • 022050Z 02006KT 9999 FEW014 FEW028TCU SCT100 15/13 Q1014 NOSIG RMK BLU BLU
  • 022020Z 02006KT 9999 FEW014 FEW028TCU SCT100 15/13 Q1013 NOSIG RMK BLU BLU
  • 021950Z 02006KT 9999 FEW014 FEW028TCU SCT060 16/14 Q1013 NOSIG RMK BLU BLU
  • 021921Z 33006KT 9999 FEW028TCU SCT060 17/13 Q1013 TE,PO 5000 SHRA BKN025CB RMK BLU TEMPO WHT

TAF AMD TAF EGDY
Valido dal 02 a 15 ore il 03 a 00 ore UTC


021503Z 0215/0224 20007KT 9999 SCT035
PROB30
TEMPO 0215/0217 7000 -SHRA SCT028TCU
BECMG 0217/0219 31005KT
TEMPO 0217/0224 5000 SHRA SCT020TCU
PROB30
TEMPO 0217/0221 29010G20KT 4000 +SHRA BKN018CB



MetMap, La meteo Aeronautica in un colpo d'occhio ! - Copyright ORBIFLY Dicembre 2007 - Disclaimer

ORBIFLY MET'MAP TEAM :

Programmazione e sviluppo : Alexandra Zaïnal
Concezione : Baudouin d'Aumeries
Aiuto per la programmazione : Marc-Olivier Méhu
Supporto tecnico e logistico : Manuel Goepfert
Aiuto per la traduzione : Arnaldo La Scala

Contatto : metmap@orbifly.com




FONTI E CREDITI :

   NOAA